Terminal Aerodrome Forecast
Issued by NWS

Home | Current Version | Previous Version | Text Only | Print | Product List | Glossary On
Versions: 1 2 3 4 5 6 7 8 9 10 11 12 13 14 15 16 17 18 19
000
FTUS43 KDVN 282300
TAFBRL
TAF
KBRL 282337Z 2900/2924 16008KT P6SM FEW250
     FM290700 18013G21KT P6SM SCT120 BKN250
     FM291400 19014G23KT P6SM VCSH SCT080 OVC120 PROB30 2914/2920
      5SM -SHRA BKN060 OVC090
     FM292000 29016G27KT P6SM FEW100 SCT250=

USA.gov is the U.S. government's official web portal to all federal, state and local government web resources and services.